sensor_id;sensor_type;location;lat;lon;timestamp;P1;durP1;ratioP1;P2;durP2;ratioP2
36351;SDS011;22382;44.768;17.206;2023-11-19T00:00:58;51.17;;;26.17;;
36351;SDS011;22382;44.768;17.206;2023-11-19T00:03:25;44.80;;;23.20;;
36351;SDS011;22382;44.768;17.206;2023-11-19T00:05:52;44.67;;;25.33;;
36351;SDS011;22382;44.768;17.206;2023-11-19T00:08:19;48.85;;;27.20;;
36351;SDS011;22382;44.768;17.206;2023-11-19T00:10:46;45.05;;;25.23;;
36351;SDS011;22382;44.768;17.206;2023-11-19T00:13:13;42.70;;;22.98;;
36351;SDS011;22382;44.768;17.206;2023-11-19T00:15:41;41.78;;;22.77;;
36351;SDS011;22382;44.768;17.206;2023-11-19T00:18:08;34.85;;;19.58;;
36351;SDS011;22382;44.768;17.206;2023-11-19T00:20:35;29.63;;;16.63;;
36351;SDS011;22382;44.768;17.206;2023-11-19T00:23:02;33.67;;;18.45;;
36351;SDS011;22382;44.768;17.206;2023-11-19T00:25:30;30.38;;;16.13;;
36351;SDS011;22382;44.768;17.206;2023-11-19T00:27:57;32.97;;;18.42;;
36351;SDS011;22382;44.768;17.206;2023-11-19T00:30:24;31.85;;;16.63;;
36351;SDS011;22382;44.768;17.206;2023-11-19T00:32:51;26.40;;;14.70;;
36351;SDS011;22382;44.768;17.206;2023-11-19T00:35:18;19.20;;;10.45;;
36351;SDS011;22382;44.768;17.206;2023-11-19T00:37:45;15.43;;;8.95;;
36351;SDS011;22382;44.768;17.206;2023-11-19T00:40:14;18.42;;;8.73;;
36351;SDS011;22382;44.768;17.206;2023-11-19T00:42:42;16.90;;;9.57;;
36351;SDS011;22382;44.768;17.206;2023-11-19T00:45:10;15.02;;;8.00;;
36351;SDS011;22382;44.768;17.206;2023-11-19T00:47:39;15.77;;;8.30;;
36351;SDS011;22382;44.768;17.206;2023-11-19T00:50:06;14.00;;;8.07;;
36351;SDS011;22382;44.768;17.206;2023-11-19T00:52:38;13.82;;;7.82;;
36351;SDS011;22382;44.768;17.206;2023-11-19T00:55:05;13.30;;;7.35;;
36351;SDS011;22382;44.768;17.206;2023-11-19T00:57:34;12.68;;;7.75;;
36351;SDS011;22382;44.768;17.206;2023-11-19T01:00:02;13.50;;;8.00;;
36351;SDS011;22382;44.768;17.206;2023-11-19T01:02:41;14.43;;;8.70;;
36351;SDS011;22382;44.768;17.206;2023-11-19T01:05:08;13.50;;;8.07;;
36351;SDS011;22382;44.768;17.206;2023-11-19T01:07:36;16.67;;;8.98;;
36351;SDS011;22382;44.768;17.206;2023-11-19T01:10:03;15.48;;;8.23;;
36351;SDS011;22382;44.768;17.206;2023-11-19T01:12:31;16.02;;;7.93;;
36351;SDS011;22382;44.768;17.206;2023-11-19T01:14:58;15.35;;;7.72;;
36351;SDS011;22382;44.768;17.206;2023-11-19T01:17:25;11.70;;;7.35;;
36351;SDS011;22382;44.768;17.206;2023-11-19T01:19:52;13.52;;;7.93;;
36351;SDS011;22382;44.768;17.206;2023-11-19T01:22:19;14.18;;;7.97;;
36351;SDS011;22382;44.768;17.206;2023-11-19T01:24:47;13.02;;;7.22;;
36351;SDS011;22382;44.768;17.206;2023-11-19T01:27:14;12.50;;;7.10;;
36351;SDS011;22382;44.768;17.206;2023-11-19T01:29:41;12.07;;;7.50;;
36351;SDS011;22382;44.768;17.206;2023-11-19T01:32:09;17.55;;;8.10;;
36351;SDS011;22382;44.768;17.206;2023-11-19T01:34:36;15.20;;;8.43;;
36351;SDS011;22382;44.768;17.206;2023-11-19T01:37:04;15.77;;;8.85;;
36351;SDS011;22382;44.768;17.206;2023-11-19T01:39:31;23.35;;;9.18;;
36351;SDS011;22382;44.768;17.206;2023-11-19T01:41:58;14.75;;;8.75;;
36351;SDS011;22382;44.768;17.206;2023-11-19T01:44:25;17.70;;;9.05;;
36351;SDS011;22382;44.768;17.206;2023-11-19T01:46:52;17.33;;;9.05;;
36351;SDS011;22382;44.768;17.206;2023-11-19T01:49:20;19.98;;;9.55;;
36351;SDS011;22382;44.768;17.206;2023-11-19T01:51:47;15.52;;;8.35;;
36351;SDS011;22382;44.768;17.206;2023-11-19T01:54:14;17.77;;;9.65;;
36351;SDS011;22382;44.768;17.206;2023-11-19T01:56:43;18.60;;;10.15;;
36351;SDS011;22382;44.768;17.206;2023-11-19T01:59:11;16.02;;;9.70;;
36351;SDS011;22382;44.768;17.206;2023-11-19T02:01:40;18.92;;;10.02;;
36351;SDS011;22382;44.768;17.206;2023-11-19T02:04:09;19.23;;;10.00;;
36351;SDS011;22382;44.768;17.206;2023-11-19T02:06:39;20.05;;;11.13;;
36351;SDS011;22382;44.768;17.206;2023-11-19T02:09:09;21.42;;;12.05;;
36351;SDS011;22382;44.768;17.206;2023-11-19T02:11:39;22.13;;;12.45;;
36351;SDS011;22382;44.768;17.206;2023-11-19T02:14:07;27.17;;;12.93;;
36351;SDS011;22382;44.768;17.206;2023-11-19T02:16:34;25.85;;;13.15;;
36351;SDS011;22382;44.768;17.206;2023-11-19T02:19:01;16.10;;;8.50;;
36351;SDS011;22382;44.768;17.206;2023-11-19T02:21:30;14.93;;;8.23;;
36351;SDS011;22382;44.768;17.206;2023-11-19T02:23:57;14.52;;;7.90;;
36351;SDS011;22382;44.768;17.206;2023-11-19T02:26:45;14.65;;;8.27;;
36351;SDS011;22382;44.768;17.206;2023-11-19T02:29:13;11.63;;;6.88;;
36351;SDS011;22382;44.768;17.206;2023-11-19T02:31:41;13.68;;;6.35;;
36351;SDS011;22382;44.768;17.206;2023-11-19T02:34:10;10.93;;;6.00;;
36351;SDS011;22382;44.768;17.206;2023-11-19T02:36:39;8.95;;;5.97;;
36351;SDS011;22382;44.768;17.206;2023-11-19T02:39:08;9.90;;;5.50;;
36351;SDS011;22382;44.768;17.206;2023-11-19T02:41:38;10.40;;;5.97;;
36351;SDS011;22382;44.768;17.206;2023-11-19T02:44:06;9.55;;;5.75;;
36351;SDS011;22382;44.768;17.206;2023-11-19T02:46:33;8.07;;;5.47;;
36351;SDS011;22382;44.768;17.206;2023-11-19T02:49:01;8.77;;;6.07;;
36351;SDS011;22382;44.768;17.206;2023-11-19T02:51:28;9.57;;;5.97;;
36351;SDS011;22382;44.768;17.206;2023-11-19T02:53:56;10.90;;;6.47;;
36351;SDS011;22382;44.768;17.206;2023-11-19T02:56:24;10.20;;;5.35;;
36351;SDS011;22382;44.768;17.206;2023-11-19T02:58:52;10.75;;;5.93;;
36351;SDS011;22382;44.768;17.206;2023-11-19T03:01:24;8.77;;;5.18;;
36351;SDS011;22382;44.768;17.206;2023-11-19T03:03:58;9.82;;;6.13;;
36351;SDS011;22382;44.768;17.206;2023-11-19T03:06:28;10.70;;;5.80;;
36351;SDS011;22382;44.768;17.206;2023-11-19T03:08:55;9.85;;;5.90;;
36351;SDS011;22382;44.768;17.206;2023-11-19T03:11:22;9.85;;;6.10;;
36351;SDS011;22382;44.768;17.206;2023-11-19T03:13:51;7.68;;;5.22;;
36351;SDS011;22382;44.768;17.206;2023-11-19T03:16:18;7.00;;;5.47;;
36351;SDS011;22382;44.768;17.206;2023-11-19T03:18:45;10.13;;;5.50;;
36351;SDS011;22382;44.768;17.206;2023-11-19T03:21:12;16.23;;;6.97;;
36351;SDS011;22382;44.768;17.206;2023-11-19T03:23:40;11.98;;;6.90;;
36351;SDS011;22382;44.768;17.206;2023-11-19T03:26:07;12.45;;;7.38;;
36351;SDS011;22382;44.768;17.206;2023-11-19T03:28:36;11.60;;;6.80;;
36351;SDS011;22382;44.768;17.206;2023-11-19T03:31:06;11.00;;;7.18;;
36351;SDS011;22382;44.768;17.206;2023-11-19T03:33:36;11.07;;;6.78;;
36351;SDS011;22382;44.768;17.206;2023-11-19T03:36:04;13.80;;;7.85;;
36351;SDS011;22382;44.768;17.206;2023-11-19T03:38:32;14.23;;;8.50;;
36351;SDS011;22382;44.768;17.206;2023-11-19T03:40:59;12.45;;;7.40;;
36351;SDS011;22382;44.768;17.206;2023-11-19T03:43:26;11.75;;;7.38;;
36351;SDS011;22382;44.768;17.206;2023-11-19T03:45:54;13.00;;;8.35;;
36351;SDS011;22382;44.768;17.206;2023-11-19T03:48:21;13.10;;;7.53;;
36351;SDS011;22382;44.768;17.206;2023-11-19T03:50:49;16.42;;;8.77;;
36351;SDS011;22382;44.768;17.206;2023-11-19T03:53:16;23.33;;;13.15;;
36351;SDS011;22382;44.768;17.206;2023-11-19T03:55:45;28.55;;;14.57;;
36351;SDS011;22382;44.768;17.206;2023-11-19T03:58:12;24.85;;;13.70;;
36351;SDS011;22382;44.768;17.206;2023-11-19T04:00:39;23.80;;;12.07;;
36351;SDS011;22382;44.768;17.206;2023-11-19T04:03:07;21.35;;;11.35;;
36351;SDS011;22382;44.768;17.206;2023-11-19T04:05:34;19.88;;;10.80;;
36351;SDS011;22382;44.768;17.206;2023-11-19T04:08:01;21.65;;;11.82;;
36351;SDS011;22382;44.768;17.206;2023-11-19T04:10:28;19.70;;;10.70;;
36351;SDS011;22382;44.768;17.206;2023-11-19T04:12:55;17.98;;;10.15;;
36351;SDS011;22382;44.768;17.206;2023-11-19T04:15:23;14.70;;;8.75;;
36351;SDS011;22382;44.768;17.206;2023-11-19T04:17:50;16.73;;;9.27;;
36351;SDS011;22382;44.768;17.206;2023-11-19T04:20:17;17.60;;;8.75;;
36351;SDS011;22382;44.768;17.206;2023-11-19T04:22:44;12.30;;;8.23;;
36351;SDS011;22382;44.768;17.206;2023-11-19T04:25:12;15.45;;;8.68;;
36351;SDS011;22382;44.768;17.206;2023-11-19T04:27:40;20.67;;;9.98;;
36351;SDS011;22382;44.768;17.206;2023-11-19T04:30:07;20.42;;;12.15;;
36351;SDS011;22382;44.768;17.206;2023-11-19T04:32:37;22.23;;;12.40;;
36351;SDS011;22382;44.768;17.206;2023-11-19T04:35:05;20.15;;;11.55;;
36351;SDS011;22382;44.768;17.206;2023-11-19T04:37:33;22.63;;;11.70;;
36351;SDS011;22382;44.768;17.206;2023-11-19T04:40:01;21.67;;;11.35;;
36351;SDS011;22382;44.768;17.206;2023-11-19T04:42:29;22.52;;;12.32;;
36351;SDS011;22382;44.768;17.206;2023-11-19T04:44:56;25.50;;;11.75;;
36351;SDS011;22382;44.768;17.206;2023-11-19T04:47:24;27.55;;;13.15;;
36351;SDS011;22382;44.768;17.206;2023-11-19T04:49:51;26.30;;;13.38;;
36351;SDS011;22382;44.768;17.206;2023-11-19T04:52:18;28.65;;;13.45;;
36351;SDS011;22382;44.768;17.206;2023-11-19T04:54:45;26.50;;;12.80;;
36351;SDS011;22382;44.768;17.206;2023-11-19T04:57:12;25.23;;;12.88;;
36351;SDS011;22382;44.768;17.206;2023-11-19T04:59:40;23.80;;;12.05;;
36351;SDS011;22382;44.768;17.206;2023-11-19T05:02:08;27.05;;;12.70;;
36351;SDS011;22382;44.768;17.206;2023-11-19T05:04:35;23.65;;;12.02;;
36351;SDS011;22382;44.768;17.206;2023-11-19T05:07:06;25.90;;;11.95;;
36351;SDS011;22382;44.768;17.206;2023-11-19T05:09:33;22.73;;;11.55;;
36351;SDS011;22382;44.768;17.206;2023-11-19T05:12:01;23.25;;;13.05;;
36351;SDS011;22382;44.768;17.206;2023-11-19T05:14:28;27.77;;;14.40;;
36351;SDS011;22382;44.768;17.206;2023-11-19T05:16:56;29.92;;;15.90;;
36351;SDS011;22382;44.768;17.206;2023-11-19T05:19:23;24.85;;;13.98;;
36351;SDS011;22382;44.768;17.206;2023-11-19T05:21:50;26.77;;;14.05;;
36351;SDS011;22382;44.768;17.206;2023-11-19T05:24:18;25.65;;;14.65;;
36351;SDS011;22382;44.768;17.206;2023-11-19T05:26:46;24.50;;;13.55;;
36351;SDS011;22382;44.768;17.206;2023-11-19T05:29:13;31.25;;;16.48;;
36351;SDS011;22382;44.768;17.206;2023-11-19T05:31:40;63.53;;;30.60;;
36351;SDS011;22382;44.768;17.206;2023-11-19T05:34:10;76.70;;;36.67;;
36351;SDS011;22382;44.768;17.206;2023-11-19T05:36:38;50.45;;;27.52;;
36351;SDS011;22382;44.768;17.206;2023-11-19T05:39:06;32.30;;;17.73;;
36351;SDS011;22382;44.768;17.206;2023-11-19T05:41:33;27.88;;;14.68;;
36351;SDS011;22382;44.768;17.206;2023-11-19T05:44:00;25.80;;;14.32;;
36351;SDS011;22382;44.768;17.206;2023-11-19T05:46:28;27.48;;;14.85;;
36351;SDS011;22382;44.768;17.206;2023-11-19T05:48:55;30.35;;;16.83;;
36351;SDS011;22382;44.768;17.206;2023-11-19T05:51:22;27.02;;;15.93;;
36351;SDS011;22382;44.768;17.206;2023-11-19T05:53:51;29.90;;;15.82;;
36351;SDS011;22382;44.768;17.206;2023-11-19T05:56:18;30.85;;;15.65;;
36351;SDS011;22382;44.768;17.206;2023-11-19T05:58:48;22.90;;;13.77;;
36351;SDS011;22382;44.768;17.206;2023-11-19T06:01:18;29.23;;;14.52;;
36351;SDS011;22382;44.768;17.206;2023-11-19T06:03:45;25.90;;;13.73;;
36351;SDS011;22382;44.768;17.206;2023-11-19T06:06:16;26.52;;;14.10;;
36351;SDS011;22382;44.768;17.206;2023-11-19T06:08:43;30.23;;;15.07;;
36351;SDS011;22382;44.768;17.206;2023-11-19T06:11:11;25.50;;;13.73;;
36351;SDS011;22382;44.768;17.206;2023-11-19T06:13:45;21.42;;;12.60;;
36351;SDS011;22382;44.768;17.206;2023-11-19T06:16:14;22.92;;;12.45;;
36351;SDS011;22382;44.768;17.206;2023-11-19T06:18:41;22.90;;;12.40;;
36351;SDS011;22382;44.768;17.206;2023-11-19T06:21:10;24.05;;;12.80;;
36351;SDS011;22382;44.768;17.206;2023-11-19T06:23:38;19.98;;;11.82;;
36351;SDS011;22382;44.768;17.206;2023-11-19T06:26:05;22.17;;;13.32;;
36351;SDS011;22382;44.768;17.206;2023-11-19T06:28:33;23.90;;;12.90;;
36351;SDS011;22382;44.768;17.206;2023-11-19T06:31:00;21.60;;;12.75;;
36351;SDS011;22382;44.768;17.206;2023-11-19T06:33:27;24.33;;;13.15;;
36351;SDS011;22382;44.768;17.206;2023-11-19T06:35:55;27.75;;;15.23;;
36351;SDS011;22382;44.768;17.206;2023-11-19T06:38:22;25.95;;;14.20;;
36351;SDS011;22382;44.768;17.206;2023-11-19T06:40:49;21.13;;;12.65;;
36351;SDS011;22382;44.768;17.206;2023-11-19T06:43:20;25.02;;;14.25;;
36351;SDS011;22382;44.768;17.206;2023-11-19T06:45:48;25.55;;;15.40;;
36351;SDS011;22382;44.768;17.206;2023-11-19T06:48:15;27.10;;;15.82;;
36351;SDS011;22382;44.768;17.206;2023-11-19T06:50:42;26.77;;;16.85;;
36351;SDS011;22382;44.768;17.206;2023-11-19T06:53:10;27.88;;;17.45;;
36351;SDS011;22382;44.768;17.206;2023-11-19T06:55:37;26.65;;;15.80;;
36351;SDS011;22382;44.768;17.206;2023-11-19T06:58:05;28.23;;;15.43;;
36351;SDS011;22382;44.768;17.206;2023-11-19T07:00:33;26.98;;;15.43;;
36351;SDS011;22382;44.768;17.206;2023-11-19T07:03:02;25.52;;;15.32;;
36351;SDS011;22382;44.768;17.206;2023-11-19T07:05:30;25.95;;;14.55;;
36351;SDS011;22382;44.768;17.206;2023-11-19T07:07:57;22.10;;;13.75;;
36351;SDS011;22382;44.768;17.206;2023-11-19T07:10:24;25.90;;;14.13;;
36351;SDS011;22382;44.768;17.206;2023-11-19T07:12:52;23.50;;;14.82;;
36351;SDS011;22382;44.768;17.206;2023-11-19T07:15:19;25.17;;;14.80;;
36351;SDS011;22382;44.768;17.206;2023-11-19T07:17:46;27.05;;;14.55;;
36351;SDS011;22382;44.768;17.206;2023-11-19T07:20:28;23.58;;;14.35;;
36351;SDS011;22382;44.768;17.206;2023-11-19T07:22:55;27.15;;;14.93;;
36351;SDS011;22382;44.768;17.206;2023-11-19T07:25:24;27.30;;;14.25;;
36351;SDS011;22382;44.768;17.206;2023-11-19T07:27:51;22.88;;;13.02;;
36351;SDS011;22382;44.768;17.206;2023-11-19T07:30:19;21.83;;;12.88;;
36351;SDS011;22382;44.768;17.206;2023-11-19T07:32:46;25.40;;;14.05;;
36351;SDS011;22382;44.768;17.206;2023-11-19T07:35:14;32.42;;;15.05;;
36351;SDS011;22382;44.768;17.206;2023-11-19T07:37:45;24.42;;;14.88;;
36351;SDS011;22382;44.768;17.206;2023-11-19T07:40:14;27.58;;;15.93;;
36351;SDS011;22382;44.768;17.206;2023-11-19T07:42:41;26.98;;;14.95;;
36351;SDS011;22382;44.768;17.206;2023-11-19T07:45:08;28.13;;;14.85;;
36351;SDS011;22382;44.768;17.206;2023-11-19T07:47:36;30.95;;;16.08;;
36351;SDS011;22382;44.768;17.206;2023-11-19T07:50:03;33.55;;;17.98;;
36351;SDS011;22382;44.768;17.206;2023-11-19T07:52:30;35.55;;;20.00;;
36351;SDS011;22382;44.768;17.206;2023-11-19T07:54:58;33.90;;;19.27;;
36351;SDS011;22382;44.768;17.206;2023-11-19T07:57:25;33.13;;;18.45;;
36351;SDS011;22382;44.768;17.206;2023-11-19T07:59:53;29.73;;;17.55;;
36351;SDS011;22382;44.768;17.206;2023-11-19T08:02:21;30.73;;;17.48;;
36351;SDS011;22382;44.768;17.206;2023-11-19T08:04:50;28.40;;;17.45;;
36351;SDS011;22382;44.768;17.206;2023-11-19T08:07:18;29.05;;;16.45;;
36351;SDS011;22382;44.768;17.206;2023-11-19T08:09:45;32.05;;;20.15;;
36351;SDS011;22382;44.768;17.206;2023-11-19T08:12:13;34.47;;;19.27;;
36351;SDS011;22382;44.768;17.206;2023-11-19T08:14:44;31.77;;;19.85;;
36351;SDS011;22382;44.768;17.206;2023-11-19T08:17:11;35.70;;;20.98;;
36351;SDS011;22382;44.768;17.206;2023-11-19T08:19:38;38.92;;;23.77;;
36351;SDS011;22382;44.768;17.206;2023-11-19T08:22:05;48.78;;;29.23;;
36351;SDS011;22382;44.768;17.206;2023-11-19T08:24:33;47.70;;;28.17;;
36351;SDS011;22382;44.768;17.206;2023-11-19T08:27:00;43.88;;;25.70;;
36351;SDS011;22382;44.768;17.206;2023-11-19T08:29:29;43.95;;;25.85;;
36351;SDS011;22382;44.768;17.206;2023-11-19T08:31:56;40.03;;;24.98;;
36351;SDS011;22382;44.768;17.206;2023-11-19T08:34:24;42.28;;;25.90;;
36351;SDS011;22382;44.768;17.206;2023-11-19T08:36:51;42.67;;;25.80;;
36351;SDS011;22382;44.768;17.206;2023-11-19T08:39:21;33.55;;;20.80;;
36351;SDS011;22382;44.768;17.206;2023-11-19T08:41:48;30.15;;;18.80;;
36351;SDS011;22382;44.768;17.206;2023-11-19T08:44:15;31.40;;;18.55;;
36351;SDS011;22382;44.768;17.206;2023-11-19T08:46:47;28.13;;;16.67;;
36351;SDS011;22382;44.768;17.206;2023-11-19T08:49:17;29.10;;;16.83;;
36351;SDS011;22382;44.768;17.206;2023-11-19T08:51:44;27.45;;;16.27;;
36351;SDS011;22382;44.768;17.206;2023-11-19T08:54:12;27.27;;;16.95;;
36351;SDS011;22382;44.768;17.206;2023-11-19T08:56:40;26.80;;;16.33;;
36351;SDS011;22382;44.768;17.206;2023-11-19T08:59:07;24.42;;;16.17;;
36351;SDS011;22382;44.768;17.206;2023-11-19T09:01:35;27.77;;;16.88;;
36351;SDS011;22382;44.768;17.206;2023-11-19T09:04:02;25.55;;;15.38;;
36351;SDS011;22382;44.768;17.206;2023-11-19T09:06:31;29.75;;;16.52;;
36351;SDS011;22382;44.768;17.206;2023-11-19T09:08:58;29.25;;;15.07;;
36351;SDS011;22382;44.768;17.206;2023-11-19T09:11:29;24.88;;;14.40;;
36351;SDS011;22382;44.768;17.206;2023-11-19T09:13:56;34.40;;;15.00;;
36351;SDS011;22382;44.768;17.206;2023-11-19T09:16:24;30.58;;;14.50;;
36351;SDS011;22382;44.768;17.206;2023-11-19T09:18:52;26.35;;;13.75;;
36351;SDS011;22382;44.768;17.206;2023-11-19T09:21:19;23.63;;;12.60;;
36351;SDS011;22382;44.768;17.206;2023-11-19T09:23:46;30.00;;;14.35;;
36351;SDS011;22382;44.768;17.206;2023-11-19T09:26:15;33.35;;;14.18;;
36351;SDS011;22382;44.768;17.206;2023-11-19T09:28:43;24.73;;;13.93;;
36351;SDS011;22382;44.768;17.206;2023-11-19T09:31:16;23.02;;;14.50;;
36351;SDS011;22382;44.768;17.206;2023-11-19T09:33:44;21.48;;;13.88;;
36351;SDS011;22382;44.768;17.206;2023-11-19T09:36:12;26.00;;;15.25;;
36351;SDS011;22382;44.768;17.206;2023-11-19T09:38:43;34.40;;;18.30;;
36351;SDS011;22382;44.768;17.206;2023-11-19T09:41:10;29.80;;;18.13;;
36351;SDS011;22382;44.768;17.206;2023-11-19T09:43:40;28.70;;;18.08;;
36351;SDS011;22382;44.768;17.206;2023-11-19T09:46:11;28.55;;;17.52;;
36351;SDS011;22382;44.768;17.206;2023-11-19T09:48:42;31.50;;;18.20;;
36351;SDS011;22382;44.768;17.206;2023-11-19T09:51:11;24.20;;;15.10;;
36351;SDS011;22382;44.768;17.206;2023-11-19T09:53:40;19.73;;;12.77;;
36351;SDS011;22382;44.768;17.206;2023-11-19T09:56:08;20.90;;;10.88;;
36351;SDS011;22382;44.768;17.206;2023-11-19T09:58:37;16.88;;;11.10;;
36351;SDS011;22382;44.768;17.206;2023-11-19T10:01:04;17.67;;;11.10;;
36351;SDS011;22382;44.768;17.206;2023-11-19T10:03:36;13.63;;;9.80;;
36351;SDS011;22382;44.768;17.206;2023-11-19T10:06:07;15.88;;;10.63;;
36351;SDS011;22382;44.768;17.206;2023-11-19T10:08:38;13.32;;;8.85;;
36351;SDS011;22382;44.768;17.206;2023-11-19T10:11:06;14.93;;;7.90;;
36351;SDS011;22382;44.768;17.206;2023-11-19T10:13:35;16.45;;;8.45;;
36351;SDS011;22382;44.768;17.206;2023-11-19T10:16:09;17.17;;;9.77;;
36351;SDS011;22382;44.768;17.206;2023-11-19T10:18:44;15.25;;;8.90;;
36351;SDS011;22382;44.768;17.206;2023-11-19T10:23:50;13.07;;;8.10;;
36351;SDS011;22382;44.768;17.206;2023-11-19T10:26:19;15.57;;;9.05;;
36351;SDS011;22382;44.768;17.206;2023-11-19T10:28:47;14.10;;;9.68;;
36351;SDS011;22382;44.768;17.206;2023-11-19T10:31:15;13.13;;;8.73;;
36351;SDS011;22382;44.768;17.206;2023-11-19T10:33:46;15.75;;;9.77;;
36351;SDS011;22382;44.768;17.206;2023-11-19T10:36:14;16.02;;;10.40;;
36351;SDS011;22382;44.768;17.206;2023-11-19T10:38:41;18.50;;;10.30;;
36351;SDS011;22382;44.768;17.206;2023-11-19T10:41:26;14.05;;;9.40;;
36351;SDS011;22382;44.768;17.206;2023-11-19T10:43:57;15.55;;;9.70;;
36351;SDS011;22382;44.768;17.206;2023-11-19T10:46:38;13.80;;;9.38;;
36351;SDS011;22382;44.768;17.206;2023-11-19T10:49:09;11.98;;;7.95;;
36351;SDS011;22382;44.768;17.206;2023-11-19T10:51:37;12.45;;;8.35;;
36351;SDS011;22382;44.768;17.206;2023-11-19T10:54:11;16.55;;;10.38;;
36351;SDS011;22382;44.768;17.206;2023-11-19T10:56:45;25.98;;;16.27;;
36351;SDS011;22382;44.768;17.206;2023-11-19T10:59:21;27.77;;;17.23;;
36351;SDS011;22382;44.768;17.206;2023-11-19T11:01:52;13.82;;;8.93;;
36351;SDS011;22382;44.768;17.206;2023-11-19T11:04:24;18.05;;;11.27;;
36351;SDS011;22382;44.768;17.206;2023-11-19T11:06:54;13.75;;;9.73;;
36351;SDS011;22382;44.768;17.206;2023-11-19T11:09:23;11.73;;;8.20;;
36351;SDS011;22382;44.768;17.206;2023-11-19T11:11:50;14.90;;;8.85;;
36351;SDS011;22382;44.768;17.206;2023-11-19T11:14:19;14.13;;;7.63;;
36351;SDS011;22382;44.768;17.206;2023-11-19T11:16:48;9.57;;;6.20;;
36351;SDS011;22382;44.768;17.206;2023-11-19T11:19:17;15.25;;;7.55;;
36351;SDS011;22382;44.768;17.206;2023-11-19T11:21:47;22.90;;;8.73;;
36351;SDS011;22382;44.768;17.206;2023-11-19T11:29:47;10.38;;;6.13;;
36351;SDS011;22382;44.768;17.206;2023-11-19T11:32:43;8.80;;;5.60;;
36351;SDS011;22382;44.768;17.206;2023-11-19T11:35:45;11.38;;;5.93;;
36351;SDS011;22382;44.768;17.206;2023-11-19T11:38:29;10.00;;;6.25;;
36351;SDS011;22382;44.768;17.206;2023-11-19T11:41:17;10.30;;;7.68;;
36351;SDS011;22382;44.768;17.206;2023-11-19T11:43:54;13.52;;;7.90;;
36351;SDS011;22382;44.768;17.206;2023-11-19T11:49:04;11.52;;;7.45;;
36351;SDS011;22382;44.768;17.206;2023-11-19T11:59:42;21.87;;;10.00;;
36351;SDS011;22382;44.768;17.206;2023-11-19T12:02:12;14.82;;;9.00;;
36351;SDS011;22382;44.768;17.206;2023-11-19T12:04:43;19.33;;;8.95;;
36351;SDS011;22382;44.768;17.206;2023-11-19T12:07:21;18.37;;;9.07;;
36351;SDS011;22382;44.768;17.206;2023-11-19T12:10:07;17.20;;;8.57;;
36351;SDS011;22382;44.768;17.206;2023-11-19T12:12:38;14.35;;;7.35;;
36351;SDS011;22382;44.768;17.206;2023-11-19T12:15:07;14.10;;;8.13;;
36351;SDS011;22382;44.768;17.206;2023-11-19T12:17:42;13.90;;;8.25;;
36351;SDS011;22382;44.768;17.206;2023-11-19T12:20:19;15.23;;;8.23;;
36351;SDS011;22382;44.768;17.206;2023-11-19T12:22:52;14.60;;;8.10;;
36351;SDS011;22382;44.768;17.206;2023-11-19T12:25:20;16.85;;;9.07;;
36351;SDS011;22382;44.768;17.206;2023-11-19T12:27:49;19.20;;;9.40;;
36351;SDS011;22382;44.768;17.206;2023-11-19T12:30:21;20.42;;;9.95;;
36351;SDS011;22382;44.768;17.206;2023-11-19T12:32:50;23.63;;;12.38;;
36351;SDS011;22382;44.768;17.206;2023-11-19T12:35:20;20.92;;;11.63;;
36351;SDS011;22382;44.768;17.206;2023-11-19T12:37:48;23.35;;;12.48;;
36351;SDS011;22382;44.768;17.206;2023-11-19T12:42:48;22.55;;;9.48;;
36351;SDS011;22382;44.768;17.206;2023-11-19T12:45:16;24.02;;;9.57;;
36351;SDS011;22382;44.768;17.206;2023-11-19T12:47:46;14.25;;;8.07;;
36351;SDS011;22382;44.768;17.206;2023-11-19T12:50:17;19.45;;;8.75;;
36351;SDS011;22382;44.768;17.206;2023-11-19T12:52:55;21.95;;;7.97;;
36351;SDS011;22382;44.768;17.206;2023-11-19T12:55:26;20.67;;;10.90;;
36351;SDS011;22382;44.768;17.206;2023-11-19T12:57:57;22.92;;;10.88;;
36351;SDS011;22382;44.768;17.206;2023-11-19T13:00:26;18.75;;;9.88;;
36351;SDS011;22382;44.768;17.206;2023-11-19T13:02:54;29.60;;;14.63;;
36351;SDS011;22382;44.768;17.206;2023-11-19T13:05:23;38.78;;;22.27;;
36351;SDS011;22382;44.768;17.206;2023-11-19T13:08:05;21.80;;;11.70;;
36351;SDS011;22382;44.768;17.206;2023-11-19T13:10:51;18.27;;;11.07;;
36351;SDS011;22382;44.768;17.206;2023-11-19T13:13:20;20.13;;;11.32;;
36351;SDS011;22382;44.768;17.206;2023-11-19T13:15:47;20.38;;;9.52;;
36351;SDS011;22382;44.768;17.206;2023-11-19T13:18:16;20.58;;;11.65;;
36351;SDS011;22382;44.768;17.206;2023-11-19T13:20:43;24.45;;;12.93;;
36351;SDS011;22382;44.768;17.206;2023-11-19T13:23:10;23.20;;;14.02;;
36351;SDS011;22382;44.768;17.206;2023-11-19T13:25:38;24.80;;;14.45;;
36351;SDS011;22382;44.768;17.206;2023-11-19T13:28:05;22.42;;;13.27;;
36351;SDS011;22382;44.768;17.206;2023-11-19T13:30:33;28.83;;;16.35;;
36351;SDS011;22382;44.768;17.206;2023-11-19T13:33:00;26.92;;;14.23;;
36351;SDS011;22382;44.768;17.206;2023-11-19T13:35:28;28.27;;;13.50;;
36351;SDS011;22382;44.768;17.206;2023-11-19T13:37:55;19.30;;;8.90;;
36351;SDS011;22382;44.768;17.206;2023-11-19T13:40:22;27.77;;;12.15;;
36351;SDS011;22382;44.768;17.206;2023-11-19T13:42:51;22.27;;;10.73;;
36351;SDS011;22382;44.768;17.206;2023-11-19T13:45:18;22.13;;;11.88;;
36351;SDS011;22382;44.768;17.206;2023-11-19T13:47:47;30.00;;;17.30;;
36351;SDS011;22382;44.768;17.206;2023-11-19T13:50:15;24.67;;;12.70;;
36351;SDS011;22382;44.768;17.206;2023-11-19T13:52:46;27.77;;;15.02;;
36351;SDS011;22382;44.768;17.206;2023-11-19T13:55:14;33.15;;;18.55;;
36351;SDS011;22382;44.768;17.206;2023-11-19T13:57:41;27.48;;;15.82;;
36351;SDS011;22382;44.768;17.206;2023-11-19T14:00:10;31.73;;;18.92;;
36351;SDS011;22382;44.768;17.206;2023-11-19T14:02:43;19.45;;;11.98;;
36351;SDS011;22382;44.768;17.206;2023-11-19T14:05:10;18.63;;;10.82;;
36351;SDS011;22382;44.768;17.206;2023-11-19T14:07:38;23.95;;;14.75;;
36351;SDS011;22382;44.768;17.206;2023-11-19T14:10:06;35.90;;;21.08;;
36351;SDS011;22382;44.768;17.206;2023-11-19T14:12:36;35.42;;;23.80;;
36351;SDS011;22382;44.768;17.206;2023-11-19T14:15:07;53.78;;;30.35;;
36351;SDS011;22382;44.768;17.206;2023-11-19T14:17:36;48.33;;;31.23;;
36351;SDS011;22382;44.768;17.206;2023-11-19T14:20:03;44.67;;;28.23;;
36351;SDS011;22382;44.768;17.206;2023-11-19T14:22:40;45.30;;;28.75;;
36351;SDS011;22382;44.768;17.206;2023-11-19T14:25:08;48.45;;;29.00;;
36351;SDS011;22382;44.768;17.206;2023-11-19T14:27:37;42.03;;;26.95;;
36351;SDS011;22382;44.768;17.206;2023-11-19T14:30:05;48.95;;;31.48;;
36351;SDS011;22382;44.768;17.206;2023-11-19T14:32:37;42.70;;;29.23;;
36351;SDS011;22382;44.768;17.206;2023-11-19T14:35:06;46.85;;;28.92;;
36351;SDS011;22382;44.768;17.206;2023-11-19T14:37:34;49.65;;;31.05;;
36351;SDS011;22382;44.768;17.206;2023-11-19T14:40:01;49.30;;;30.98;;
36351;SDS011;22382;44.768;17.206;2023-11-19T14:42:31;53.80;;;30.70;;
36351;SDS011;22382;44.768;17.206;2023-11-19T14:44:58;78.50;;;44.13;;